createdAt,value
2018-02-10T00:00:45.206Z,94.7
2018-02-10T00:01:44.938Z,94.98
2018-02-10T00:02:44.925Z,94.89
2018-02-10T00:03:45.170Z,95.26
2018-02-10T00:04:44.908Z,95.26
2018-02-10T00:05:44.897Z,95.26
2018-02-10T00:06:45.138Z,94.98
2018-02-10T00:07:44.881Z,95.64
2018-02-10T00:08:45.124Z,95.07
2018-02-10T00:09:45.110Z,94.98
2018-02-10T00:10:44.866Z,95.26
2018-02-10T00:11:45.156Z,95.07
2018-02-10T00:12:44.838Z,94.98
2018-02-10T00:13:44.823Z,94.6
2018-02-10T00:14:45.060Z,94.98
2018-02-10T00:15:45.054Z,95.07
2018-02-10T00:16:45.042Z,95.74
2018-02-10T00:17:45.032Z,95.07
2018-02-10T00:18:44.772Z,94.79
2018-02-10T00:19:44.762Z,95.07
2018-02-10T00:20:44.998Z,94.98
2018-02-10T00:21:44.994Z,95.83
2018-02-10T00:22:44.741Z,96.12
2018-02-10T00:23:44.734Z,95.93
2018-02-10T00:24:44.722Z,95.64
2018-02-10T00:25:44.710Z,95.74
2018-02-10T00:26:44.703Z,95.93
2018-02-10T00:27:44.941Z,95.64
2018-02-10T00:28:44.935Z,95.45
2018-02-10T00:29:44.669Z,95.55
2018-02-10T00:30:44.666Z,95.93
2018-02-10T00:31:44.969Z,95.45
2018-02-10T00:32:44.901Z,95.93
2018-02-10T00:33:44.632Z,96.31
2018-02-10T00:34:48.328Z,96.21
2018-02-10T00:35:44.612Z,96.21
2018-02-10T00:36:44.855Z,96.4
2018-02-10T00:37:44.845Z,96.69
2018-02-10T00:38:44.838Z,96.69
2018-02-10T00:39:44.573Z,96.69
2018-02-10T00:40:44.567Z,96.4
2018-02-10T00:41:44.554Z,96.5
2018-02-10T00:42:44.805Z,96.31
2018-02-10T00:43:44.814Z,96.59
2018-02-10T00:44:44.777Z,96.31
2018-02-10T00:45:44.773Z,96.31
2018-02-10T00:46:44.758Z,96.4
2018-02-10T00:47:44.754Z,96.69
2018-02-10T00:48:44.491Z,96.5
2018-02-10T00:49:44.484Z,97.16
2018-02-10T00:50:44.720Z,97.06
2018-02-10T00:51:44.710Z,97.44
2018-02-10T00:52:44.701Z,97.44
2018-02-10T00:53:44.455Z,96.97
2018-02-10T00:54:44.729Z,97.44
2018-02-10T00:55:44.493Z,97.44
2018-02-10T00:56:44.688Z,97.25
2018-02-10T00:57:44.425Z,97.06
2018-02-10T00:58:44.395Z,97.25
2018-02-10T00:59:44.406Z,97.35
2018-02-10T01:00:44.626Z,96.97
2018-02-10T01:01:44.372Z,97.44
2018-02-10T01:02:44.365Z,97.35
2018-02-10T01:03:44.638Z,97.06
2018-02-10T01:04:44.668Z,97.44
2018-02-10T01:05:44.422Z,97.35
2018-02-10T01:06:44.622Z,97.54
2018-02-10T01:07:44.714Z,97.16
2018-02-10T01:08:44.305Z,97.35
2018-02-10T01:09:44.290Z,97.06
2018-02-10T01:10:44.283Z,97.06
2018-02-10T01:11:44.538Z,96.88
2018-02-10T01:12:44.260Z,97.06
2018-02-10T01:13:44.264Z,97.54
2018-02-10T01:14:44.496Z,96.88
2018-02-10T01:15:44.485Z,97.73
2018-02-10T01:16:44.225Z,97.25
2018-02-10T01:17:44.216Z,96.88
2018-02-10T01:18:44.460Z,96.88
2018-02-10T01:19:44.447Z,97.25
2018-02-10T01:20:44.441Z,97.25
2018-02-10T01:21:44.442Z,97.25
2018-02-10T01:22:44.425Z,97.35
2018-02-10T01:23:44.158Z,97.44
2018-02-10T01:24:44.408Z,96.97
2018-02-10T01:25:44.399Z,96.69
2018-02-10T01:26:44.397Z,97.44
2018-02-10T01:27:44.120Z,97.16
2018-02-10T01:28:44.123Z,97.35
2018-02-10T01:29:44.360Z,97.25
2018-02-10T01:30:44.374Z,97.06
2018-02-10T01:31:44.356Z,97.35
2018-02-10T01:32:44.341Z,96.69
2018-02-10T01:33:44.317Z,97.25
2018-02-10T01:34:44.308Z,96.97
2018-02-10T01:35:44.297Z,97.44
2018-02-10T01:36:44.033Z,97.82
2018-02-10T01:37:44.276Z,97.54
2018-02-10T01:38:44.271Z,97.44
2018-02-10T01:39:44.005Z,97.16
2018-02-10T01:40:44.253Z,97.35
2018-02-10T01:41:44.242Z,97.25
2018-02-10T01:42:43.980Z,97.16
2018-02-10T01:43:43.974Z,97.16
2018-02-10T01:44:44.216Z,96.78
2018-02-10T01:45:43.962Z,96.97
2018-02-10T01:46:44.200Z,97.44
2018-02-10T01:47:44.187Z,96.97
2018-02-10T01:48:44.172Z,96.69
2018-02-10T01:49:44.169Z,96.69
2018-02-10T01:50:43.903Z,96.78
2018-02-10T01:51:43.896Z,96.78
2018-02-10T01:52:43.889Z,97.06
2018-02-10T01:53:43.883Z,97.06
2018-02-10T01:54:43.864Z,97.25
2018-02-10T01:55:43.943Z,97.06
2018-02-10T01:56:44.105Z,97.25
2018-02-10T01:57:44.094Z,96.97
2018-02-10T01:58:43.829Z,96.97
2018-02-10T01:59:44.066Z,96.69
2018-02-10T02:00:44.091Z,97.06
2018-02-10T02:01:44.049Z,97.25
2018-02-10T02:02:43.785Z,97.44
2018-02-10T02:03:44.055Z,97.44
2018-02-10T02:04:44.019Z,97.44
2018-02-10T02:05:43.769Z,97.16
2018-02-10T02:06:44.003Z,97.16
2018-02-10T02:07:44.003Z,97.44
2018-02-10T02:08:43.980Z,97.35
2018-02-10T02:09:43.972Z,97.54
2018-02-10T02:10:44.762Z,97.82
2018-02-10T02:11:43.700Z,97.92
2018-02-10T02:12:43.943Z,96.5
2018-02-10T02:13:43.931Z,96.69
2018-02-10T02:14:43.680Z,97.63
2018-02-10T02:15:43.919Z,96.4
2018-02-10T02:16:43.908Z,96.88
2018-02-10T02:17:43.649Z,97.63
2018-02-10T02:18:43.895Z,97.54
2018-02-10T02:19:43.891Z,97.35
2018-02-10T02:20:43.873Z,97.92
2018-02-10T02:21:43.863Z,97.35
2018-02-10T02:22:43.848Z,97.16
2018-02-10T02:23:43.844Z,97.35
2018-02-10T02:24:43.839Z,97.54
2018-02-10T02:25:43.823Z,97.54
2018-02-10T02:26:43.559Z,97.73
2018-02-10T02:27:43.801Z,97.63
2018-02-10T02:28:43.541Z,97.35
2018-02-10T02:29:43.540Z,97.73
2018-02-10T02:30:43.521Z,97.54
2018-02-10T02:31:43.773Z,97.54
2018-02-10T02:32:43.758Z,96.88
2018-02-10T02:33:43.755Z,97.25
2018-02-10T02:34:43.490Z,97.25
2018-02-10T02:35:45.001Z,97.25
2018-02-10T02:36:43.469Z,97.16
2018-02-10T02:37:43.456Z,97.25
2018-02-10T02:38:43.699Z,97.06
2018-02-10T02:39:43.439Z,97.16
2018-02-10T02:40:43.462Z,97.06
2018-02-10T02:41:43.678Z,96.97
2018-02-10T02:42:43.412Z,97.25
2018-02-10T02:43:43.663Z,97.06
2018-02-10T02:44:43.644Z,97.06
2018-02-10T02:45:43.653Z,97.16
2018-02-10T02:46:43.638Z,97.06
2018-02-10T02:47:43.622Z,96.97
2018-02-10T02:48:43.373Z,97.25
2018-02-10T02:49:43.597Z,97.25
2018-02-10T02:50:43.590Z,97.25
2018-02-10T02:51:43.586Z,97.44
2018-02-10T02:52:43.573Z,97.16
2018-02-10T02:53:43.561Z,97.25
2018-02-10T02:54:43.560Z,97.35
2018-02-10T02:55:43.290Z,97.35
2018-02-10T02:56:43.529Z,97.54
2018-02-10T02:57:43.519Z,96.88
2018-02-10T02:58:43.520Z,97.35
2018-02-10T02:59:43.506Z,97.16
2018-02-10T03:00:43.548Z,97.25
2018-02-10T03:01:43.485Z,97.16
2018-02-10T03:02:43.224Z,97.54
2018-02-10T03:03:43.473Z,97.54
2018-02-10T03:04:43.210Z,97.44
2018-02-10T03:05:43.448Z,96.69
2018-02-10T03:06:43.439Z,96.59
2018-02-10T03:07:43.177Z,96.59
2018-02-10T03:08:43.423Z,96.69
2018-02-10T03:09:43.410Z,96.59
2018-02-10T03:10:43.147Z,96.69
2018-02-10T03:11:43.394Z,97.35
2018-02-10T03:12:43.133Z,96.97
2018-02-10T03:13:43.123Z,97.16
2018-02-10T03:14:43.377Z,97.35
2018-02-10T03:15:43.352Z,97.44
2018-02-10T03:16:43.348Z,97.25
2018-02-10T03:17:43.336Z,97.16
2018-02-10T03:18:43.082Z,97.63
2018-02-10T03:19:43.315Z,97.73
2018-02-10T03:20:43.307Z,97.06
2018-02-10T03:21:43.302Z,96.88
2018-02-10T03:22:43.045Z,97.16
2018-02-10T03:23:43.034Z,97.06
2018-02-10T03:24:43.015Z,97.16
2018-02-10T03:25:43.284Z,97.16
2018-02-10T03:26:42.999Z,97.44
2018-02-10T03:27:42.989Z,96.97
2018-02-10T03:28:43.243Z,97.63
2018-02-10T03:29:43.227Z,97.35
2018-02-10T03:30:42.965Z,96.88
2018-02-10T03:31:42.956Z,97.25
2018-02-10T03:32:42.944Z,97.06
2018-02-10T03:33:43.186Z,97.16
2018-02-10T03:34:43.179Z,97.35
2018-02-10T03:35:43.166Z,96.59
2018-02-10T03:36:42.907Z,96.4
2018-02-10T03:37:42.893Z,96.31
2018-02-10T03:38:43.140Z,96.69
2018-02-10T03:39:42.878Z,96.12
2018-02-10T03:40:42.870Z,96.69
2018-02-10T03:41:42.861Z,96.59
2018-02-10T03:42:42.848Z,96.59
2018-02-10T03:43:42.839Z,96.69
2018-02-10T03:44:42.830Z,96.5
2018-02-10T03:45:42.829Z,96.12
2018-02-10T03:46:43.614Z,96.4
2018-02-10T03:47:43.063Z,96.78
2018-02-10T03:48:43.047Z,96.88
2018-02-10T03:49:42.782Z,96.97
2018-02-10T03:50:42.783Z,96.78
2018-02-10T03:51:44.074Z,96.69
2018-02-10T03:52:43.010Z,96.31
2018-02-10T03:53:43.000Z,96.97
2018-02-10T03:54:42.995Z,96.78
2018-02-10T03:55:42.979Z,96.4
2018-02-10T03:56:42.726Z,96.4
2018-02-10T03:57:42.961Z,96.4
2018-02-10T03:58:42.703Z,96.31
2018-02-10T03:59:42.941Z,96.5
2018-02-10T04:00:42.681Z,96.4
2018-02-10T04:01:42.926Z,96.97
2018-02-10T04:02:42.915Z,96.31
2018-02-10T04:03:42.905Z,96.97
2018-02-10T04:04:42.892Z,96.78
2018-02-10T04:05:42.692Z,96.97
2018-02-10T04:06:42.884Z,96.78
2018-02-10T04:07:42.872Z,96.88
2018-02-10T04:08:42.859Z,96.88
2018-02-10T04:09:42.850Z,96.97
2018-02-10T04:10:42.586Z,97.35
2018-02-10T04:11:42.579Z,96.5
2018-02-10T04:12:42.816Z,97.16
2018-02-10T04:13:42.556Z,96.97
2018-02-10T04:14:42.801Z,97.54
2018-02-10T04:15:42.792Z,97.25
2018-02-10T04:16:42.800Z,97.35
2018-02-10T04:17:42.772Z,97.06
2018-02-10T04:18:42.767Z,97.63
2018-02-10T04:19:42.502Z,97.54
2018-02-10T04:20:42.494Z,97.16
2018-02-10T04:21:42.740Z,97.06
2018-02-10T04:22:42.726Z,97.06
2018-02-10T04:23:42.723Z,97.06
2018-02-10T04:24:42.711Z,96.97
2018-02-10T04:25:42.449Z,97.54
2018-02-10T04:26:42.693Z,97.44
2018-02-10T04:27:42.430Z,97.54
2018-02-10T04:28:42.669Z,97.16
2018-02-10T04:29:42.409Z,97.16
2018-02-10T04:30:42.709Z,97.44
2018-02-10T04:31:42.646Z,97.54
2018-02-10T04:32:42.630Z,97.44
2018-02-10T04:33:42.377Z,97.25
2018-02-10T04:34:42.615Z,97.16
2018-02-10T04:35:42.605Z,97.44
2018-02-10T04:36:42.341Z,97.82
2018-02-10T04:37:42.592Z,97.06
2018-02-10T04:38:42.328Z,97.44
2018-02-10T04:39:42.565Z,97.44
2018-02-10T04:40:42.620Z,97.44
2018-02-10T04:41:42.548Z,96.97
2018-02-10T04:42:42.539Z,97.06
2018-02-10T04:43:42.276Z,97.44
2018-02-10T04:44:42.268Z,97.35
2018-02-10T04:45:42.512Z,97.16
2018-02-10T04:46:42.248Z,97.63
2018-02-10T04:47:42.239Z,98.11
2018-02-10T04:48:42.238Z,97.25
2018-02-10T04:49:42.219Z,97.73
2018-02-10T04:50:42.210Z,97.25
2018-02-10T04:51:42.215Z,97.54
2018-02-10T04:52:42.192Z,97.63
2018-02-10T04:53:42.188Z,97.92
2018-02-10T04:54:42.176Z,98.11
2018-02-10T04:55:42.163Z,97.92
2018-02-10T04:56:42.158Z,97.73
2018-02-10T04:57:42.401Z,98.11
2018-02-10T04:58:42.404Z,97.73
2018-02-10T04:59:42.380Z,97.92
2018-02-10T05:00:42.368Z,97.73
2018-02-10T05:01:42.362Z,98.2
2018-02-10T05:02:42.359Z,98.2
2018-02-10T05:03:42.342Z,98.11
2018-02-10T05:04:42.340Z,98.2
2018-02-10T05:05:42.070Z,98.01
2018-02-10T05:06:42.059Z,97.63
2018-02-10T05:07:42.051Z,98.2
2018-02-10T05:08:42.046Z,98.3
2018-02-10T05:09:42.284Z,98.3
2018-02-10T05:10:42.276Z,98.2
2018-02-10T05:11:42.266Z,98.2
2018-02-10T05:12:42.004Z,97.82
2018-02-10T05:13:42.243Z,97.63
2018-02-10T05:14:42.238Z,97.73
2018-02-10T05:15:41.975Z,98.01
2018-02-10T05:16:42.217Z,97.82
2018-02-10T05:17:41.957Z,97.82
2018-02-10T05:18:41.946Z,97.54
2018-02-10T05:19:42.194Z,97.73
2018-02-10T05:20:42.179Z,97.73
2018-02-10T05:21:41.920Z,97.73
2018-02-10T05:22:41.914Z,97.63
2018-02-10T05:23:41.900Z,97.82
2018-02-10T05:24:42.144Z,98.01
2018-02-10T05:25:41.887Z,97.63
2018-02-10T05:26:41.874Z,98.11
2018-02-10T05:27:42.131Z,98.11
2018-02-10T05:28:42.107Z,98.11
2018-02-10T05:29:42.104Z,98.86
2018-02-10T05:30:41.852Z,98.86
2018-02-10T05:31:42.076Z,98.11
2018-02-10T05:32:42.073Z,98.3
2018-02-10T05:33:42.072Z,98.11
2018-02-10T05:34:42.050Z,98.11
2018-02-10T05:35:42.114Z,98.96
2018-02-10T05:36:42.030Z,98.77
2018-02-10T05:37:41.768Z,98.3
2018-02-10T05:38:42.011Z,98.96
2018-02-10T05:39:41.751Z,98.68
2018-02-10T05:40:41.806Z,98.3
2018-02-10T05:41:41.985Z,97.73
2018-02-10T05:42:41.722Z,97.06
2018-02-10T05:43:41.964Z,97.63
2018-02-10T05:44:41.704Z,97.25
2018-02-10T05:45:41.692Z,97.25
2018-02-10T05:46:41.937Z,97.16
2018-02-10T05:47:41.981Z,97.44
2018-02-10T05:48:41.914Z,97.44
2018-02-10T05:49:41.934Z,96.78
2018-02-10T05:50:41.646Z,96.88
2018-02-10T05:51:41.893Z,96.12
2018-02-10T05:52:41.882Z,96.69
2018-02-10T05:53:41.871Z,96.69
2018-02-10T05:54:41.862Z,96.02
2018-02-10T05:55:41.850Z,95.64
2018-02-10T05:56:41.589Z,96.02
2018-02-10T05:57:41.831Z,96.02
2018-02-10T05:58:41.570Z,95.93
2018-02-10T05:59:41.562Z,95.93
2018-02-10T06:00:41.808Z,95.93
2018-02-10T06:01:41.566Z,95.36
2018-02-10T06:02:41.787Z,94.98
2018-02-10T06:03:41.777Z,95.07
2018-02-10T06:04:41.766Z,94.89
2018-02-10T06:05:41.758Z,95.07
2018-02-10T06:06:41.746Z,94.98
2018-02-10T06:07:44.152Z,94.89
2018-02-10T06:08:41.475Z,94.98
2018-02-10T06:09:41.719Z,94.89
2018-02-10T06:10:41.713Z,94.7
2018-02-10T06:11:41.444Z,94.79
2018-02-10T06:12:41.446Z,95.26
2018-02-10T06:13:41.688Z,94.42
2018-02-10T06:14:41.418Z,94.32
2018-02-10T06:15:41.663Z,94.32
2018-02-10T06:16:41.650Z,94.32
2018-02-10T06:17:41.651Z,94.51
2018-02-10T06:18:41.634Z,93.65
2018-02-10T06:19:41.630Z,94.13
2018-02-10T06:20:41.419Z,93.84
2018-02-10T06:21:41.357Z,93.65
2018-02-10T06:22:41.598Z,93.46
2018-02-10T06:23:41.333Z,94.13
2018-02-10T06:24:41.326Z,94.13
2018-02-10T06:25:41.566Z,94.32
2018-02-10T06:26:41.301Z,94.7
2018-02-10T06:27:41.549Z,95.07
2018-02-10T06:28:41.291Z,94.98
2018-02-10T06:29:41.281Z,95.26
2018-02-10T06:30:41.526Z,95.93
2018-02-10T06:31:41.525Z,95.93
2018-02-10T06:32:41.501Z,96.02
2018-02-10T06:33:41.238Z,96.12
2018-02-10T06:34:41.478Z,95.74
2018-02-10T06:35:41.470Z,96.12
2018-02-10T06:36:41.210Z,96.12
2018-02-10T06:37:41.459Z,95.93
2018-02-10T06:38:41.441Z,95.93
2018-02-10T06:39:41.430Z,95.93
2018-02-10T06:40:41.423Z,95.83
2018-02-10T06:41:41.163Z,95.74
2018-02-10T06:42:41.151Z,96.02
2018-02-10T06:43:41.390Z,96.12
2018-02-10T06:44:41.380Z,95.93
2018-02-10T06:45:41.137Z,95.64
2018-02-10T06:46:41.364Z,96.02
2018-02-10T06:47:41.358Z,96.02
2018-02-10T06:48:41.348Z,96.02
2018-02-10T06:49:41.340Z,96.02
2018-02-10T06:50:41.084Z,95.64
2018-02-10T06:51:41.075Z,96.12
2018-02-10T06:52:41.064Z,95.74
2018-02-10T06:53:41.056Z,95.83
2018-02-10T06:54:41.041Z,95.93
2018-02-10T06:55:41.079Z,94.98
2018-02-10T06:56:41.273Z,94.98
2018-02-10T06:57:41.267Z,95.26
2018-02-10T06:58:41.013Z,94.89
2018-02-10T06:59:41.246Z,94.98
2018-02-10T07:00:41.309Z,95.26
2018-02-10T07:01:41.316Z,94.98
2018-02-10T07:02:40.975Z,94.89
2018-02-10T07:03:40.952Z,94.98
2018-02-10T07:04:41.198Z,94.89
2018-02-10T07:05:40.938Z,94.89
2018-02-10T07:06:41.178Z,95.36
2018-02-10T07:07:41.173Z,95.45
2018-02-10T07:08:41.414Z,94.93
2018-02-10T07:09:41.149Z,94.98
2018-02-10T07:10:41.142Z,95.26
2018-02-10T07:11:40.881Z,95.22
2018-02-10T07:12:41.123Z,94.89
2018-02-10T07:13:41.111Z,94.74
2018-02-10T07:14:40.848Z,95.12
2018-02-10T07:15:40.838Z,95.07
2018-02-10T07:16:41.082Z,95.17
2018-02-10T07:17:41.073Z,95.98
2018-02-10T07:18:41.060Z,96.31
2018-02-10T07:19:41.053Z,95.03
2018-02-10T07:20:41.050Z,95.36
2018-02-10T07:21:41.035Z,95.03
2018-02-10T07:22:41.025Z,94.98
2018-02-10T07:23:42.617Z,95.31
2018-02-10T07:24:41.006Z,95.26
2018-02-10T07:25:40.994Z,95.26
2018-02-10T07:26:40.986Z,95.31
2018-02-10T07:27:40.727Z,95.31
2018-02-10T07:28:40.977Z,95.07
2018-02-10T07:29:40.960Z,95.41
2018-02-10T07:30:40.705Z,94.98
2018-02-10T07:31:40.996Z,95.64
2018-02-10T07:32:41.013Z,95.6
2018-02-10T07:33:40.671Z,94.98
2018-02-10T07:34:40.922Z,95.22
2018-02-10T07:35:40.654Z,95.31
2018-02-10T07:36:40.895Z,95.31
2018-02-10T07:37:40.892Z,95.12
2018-02-10T07:38:42.885Z,95.31
2018-02-10T07:39:40.867Z,94.93
2018-02-10T07:40:40.610Z,94.93
2018-02-10T07:41:40.861Z,95.12
2018-02-10T07:42:40.586Z,95.12
2018-02-10T07:43:40.578Z,94.93
2018-02-10T07:44:40.824Z,95.03
2018-02-10T07:45:40.561Z,95.22
2018-02-10T07:46:40.559Z,95.03
2018-02-10T07:47:40.807Z,94.74
2018-02-10T07:48:40.542Z,95.03
2018-02-10T07:49:40.525Z,95.12
2018-02-10T07:50:40.770Z,95.03
2018-02-10T07:51:40.764Z,94.93
2018-02-10T07:52:40.507Z,94.46
2018-02-10T07:53:40.743Z,94.37
2018-02-10T07:54:40.732Z,94.18
2018-02-10T07:55:40.722Z,94.56
2018-02-10T07:56:40.715Z,93.7
2018-02-10T07:57:40.720Z,93.51
2018-02-10T07:58:40.696Z,94.37
2018-02-10T07:59:40.687Z,94.56
2018-02-10T08:00:40.683Z,94.18
2018-02-10T08:01:40.674Z,93.23
2018-02-10T08:02:40.660Z,94.08
2018-02-10T08:03:40.648Z,93.89
2018-02-10T08:04:40.394Z,94.18
2018-02-10T08:05:40.997Z,94.65
2018-02-10T08:06:40.629Z,95.12
2018-02-10T08:07:40.619Z,95.12
2018-02-10T08:08:40.612Z,94.65
2018-02-10T08:09:40.399Z,94.27
2018-02-10T08:10:40.338Z,94.65
2018-02-10T08:11:40.328Z,94.46
2018-02-10T08:12:40.325Z,94.08
2018-02-10T08:13:40.562Z,93.51
2018-02-10T08:14:40.558Z,93.51
2018-02-10T08:15:40.548Z,93.8
2018-02-10T08:16:40.286Z,93.99
2018-02-10T08:17:40.529Z,94.23
2018-02-10T08:18:40.267Z,94.51
2018-02-10T08:19:40.509Z,94.51
2018-02-10T08:20:40.500Z,94.7
2018-02-10T08:21:40.236Z,94.79
2018-02-10T08:22:40.488Z,95.74
2018-02-10T08:23:40.225Z,95.64
2018-02-10T08:24:40.211Z,95.64
2018-02-10T08:25:40.451Z,95.83
2018-02-10T08:26:40.442Z,94.89
2018-02-10T08:27:40.430Z,95.03
2018-02-10T08:28:40.173Z,95.12
2018-02-10T08:29:40.168Z,94.74
2018-02-10T08:30:40.405Z,94.84
2018-02-10T08:31:40.152Z,94.84
2018-02-10T08:32:40.134Z,94.27
2018-02-10T08:33:40.376Z,94.56
2018-02-10T08:34:40.368Z,94.37
2018-02-10T08:35:40.390Z,94.46
2018-02-10T08:36:40.100Z,94.46
2018-02-10T08:37:40.336Z,94.74
2018-02-10T08:38:40.079Z,94.84
2018-02-10T08:39:45.276Z,94.65
2018-02-10T08:40:40.312Z,94.56
2018-02-10T08:41:40.049Z,94.93
2018-02-10T08:42:40.292Z,94.18
2018-02-10T08:43:40.284Z,94.18
2018-02-10T08:44:40.025Z,93.89
2018-02-10T08:45:40.091Z,94.08
2018-02-10T08:46:40.256Z,93.8
2018-02-10T08:47:40.253Z,93.99
2018-02-10T08:48:40.238Z,94.08
2018-02-10T08:49:40.227Z,93.32
2018-02-10T08:50:40.219Z,93.7
2018-02-10T08:51:40.212Z,93.7
2018-02-10T08:52:39.953Z,93.89
2018-02-10T08:53:39.943Z,93.32
2018-02-10T08:54:40.186Z,93.61
2018-02-10T08:55:39.973Z,93.7
2018-02-10T08:56:39.913Z,93.99
2018-02-10T08:57:39.906Z,93.23
2018-02-10T08:58:40.155Z,93.7
2018-02-10T08:59:40.142Z,93.32
2018-02-10T09:00:40.134Z,93.7
2018-02-10T09:01:40.128Z,93.51
2018-02-10T09:02:40.113Z,93.7
2018-02-10T09:03:40.106Z,93.7
2018-02-10T09:04:40.100Z,93.23
2018-02-10T09:05:40.100Z,93.51
2018-02-10T09:06:40.080Z,93.04
2018-02-10T09:07:40.071Z,92.85
2018-02-10T09:08:39.810Z,92.47
2018-02-10T09:09:40.051Z,92.47
2018-02-10T09:10:40.058Z,92.28
2018-02-10T09:11:40.057Z,92.19
2018-02-10T09:12:40.033Z,91.95
2018-02-10T09:13:39.767Z,92.14
2018-02-10T09:14:40.008Z,91.19
2018-02-10T09:15:40.006Z,91.28
2018-02-10T09:16:40.009Z,91.28
2018-02-10T09:17:39.983Z,90.81
2018-02-10T09:18:39.983Z,91.28
2018-02-10T09:19:39.968Z,90.72
2018-02-10T09:20:39.963Z,90.24
2018-02-10T09:21:39.957Z,90.05
2018-02-10T09:22:39.698Z,89.86
2018-02-10T09:23:39.933Z,90.91
2018-02-10T09:24:39.928Z,91.09
2018-02-10T09:25:39.725Z,90.91
2018-02-10T09:26:39.661Z,91.33
2018-02-10T09:27:39.651Z,91.62
2018-02-10T09:28:39.891Z,91.43
2018-02-10T09:29:39.893Z,91.43
2018-02-10T09:30:39.888Z,90.95
2018-02-10T09:31:39.876Z,90.29
2018-02-10T09:32:39.618Z,91.19
2018-02-10T09:33:39.857Z,90.91
2018-02-10T09:34:39.844Z,90.67
2018-02-10T09:35:39.833Z,91.14
2018-02-10T09:36:39.575Z,91.43
2018-02-10T09:37:39.576Z,91.81
2018-02-10T09:38:39.809Z,92.47
2018-02-10T09:39:39.805Z,92.57
2018-02-10T09:40:44.345Z,92.47
2018-02-10T09:41:39.784Z,92.66
2018-02-10T09:42:39.783Z,92.47
2018-02-10T09:43:39.771Z,92.47
2018-02-10T09:44:39.759Z,92.66
2018-02-10T09:45:39.500Z,93.51
2018-02-10T09:46:39.490Z,93.51
2018-02-10T09:47:39.484Z,93.51
2018-02-10T09:48:39.732Z,92.85
2018-02-10T09:49:39.717Z,92.76
2018-02-10T09:50:39.707Z,92.57
2018-02-10T09:51:39.447Z,92.76
2018-02-10T09:52:39.436Z,93.51
2018-02-10T09:53:39.681Z,93.32
2018-02-10T09:54:39.671Z,93.04
2018-02-10T09:55:39.410Z,93.7
2018-02-10T09:56:39.658Z,93.13
2018-02-10T09:57:39.645Z,93.32
2018-02-10T09:58:39.384Z,92.28
2018-02-10T09:59:39.378Z,92.76
2018-02-10T10:00:39.368Z,92.76
2018-02-10T10:01:39.625Z,93.61
2018-02-10T10:02:39.601Z,92.94
2018-02-10T10:03:39.592Z,92.47
2018-02-10T10:04:39.333Z,92.85
2018-02-10T10:05:39.328Z,93.32
2018-02-10T10:06:39.317Z,93.23
2018-02-10T10:07:39.563Z,93.04
2018-02-10T10:08:39.601Z,93.13
2018-02-10T10:09:39.302Z,93.46
2018-02-10T10:10:39.539Z,92.71
2018-02-10T10:11:39.271Z,92.61
2018-02-10T10:12:39.515Z,92.42
2018-02-10T10:13:39.507Z,91.66
2018-02-10T10:14:39.496Z,91.19
2018-02-10T10:15:39.490Z,91.38
2018-02-10T10:16:39.478Z,91.57
2018-02-10T10:17:39.474Z,91.28
2018-02-10T10:18:39.464Z,91.09
2018-02-10T10:19:39.456Z,91.66
2018-02-10T10:20:39.211Z,91.9
2018-02-10T10:21:39.438Z,92.76
2018-02-10T10:22:39.178Z,92.66
2018-02-10T10:23:39.191Z,93.51
2018-02-10T10:24:39.413Z,93.32
2018-02-10T10:54:16.478Z,87.73
2018-02-10T10:55:16.951Z,87.63
2018-02-10T10:56:16.442Z,87.35
2018-02-10T10:57:16.428Z,87.25
2018-02-10T10:58:16.418Z,87.06
2018-02-10T10:59:16.406Z,86.49
2018-02-10T11:00:16.698Z,86.97
2018-02-10T11:01:16.381Z,86.3
2018-02-10T11:02:16.372Z,86.21
2018-02-10T11:03:16.365Z,85.93
2018-02-10T11:04:16.388Z,86.21
2018-02-10T11:05:16.583Z,85.45
2018-02-10T11:06:16.084Z,85.64
2018-02-10T11:07:16.327Z,84.59
2018-02-10T11:08:16.320Z,84.5
2018-02-10T11:09:16.310Z,84.12
2018-02-10T11:10:17.052Z,84.12
2018-02-10T11:11:16.295Z,84.12
2018-02-10T11:12:16.032Z,83.97
2018-02-10T11:13:16.276Z,83.65
2018-02-10T11:14:16.268Z,83.74
2018-02-10T11:15:16.351Z,83.84
2018-02-10T11:16:16.006Z,83.88
2018-02-10T11:17:16.056Z,83.5
2018-02-10T11:18:16.241Z,83.69
2018-02-10T11:19:15.982Z,83.84
2018-02-10T11:20:16.925Z,84.03
2018-02-10T11:21:15.964Z,84.12
2018-02-10T11:22:15.965Z,83.74
2018-02-10T11:23:15.948Z,83.97
2018-02-10T11:24:21.048Z,83.74
2018-02-10T11:25:17.035Z,84.78
2018-02-10T11:26:15.934Z,84.78
2018-02-10T11:27:15.920Z,84.98
2018-02-10T11:28:16.172Z,85.07
2018-02-10T11:29:15.907Z,85.83
2018-02-10T11:30:16.651Z,86.68
2018-02-10T11:31:16.142Z,86.78
2018-02-10T11:32:15.883Z,86.45
2018-02-10T11:33:15.876Z,86.59
2018-02-10T11:34:16.128Z,87.02
2018-02-10T11:35:16.186Z,87.21
2018-02-10T11:36:16.107Z,86.93
2018-02-10T11:37:16.098Z,87.59
2018-02-10T11:38:15.839Z,87.21
2018-02-10T11:39:15.835Z,87.4
2018-02-10T11:40:16.605Z,87.4
2018-02-10T11:41:16.064Z,86.93
2018-02-10T11:42:16.072Z,87.3
2018-02-10T11:43:16.055Z,87.21
2018-02-10T11:44:15.796Z,87.59
2018-02-10T11:45:16.581Z,87.21
2018-02-10T11:46:16.025Z,87.4
2018-02-10T11:47:16.042Z,87.45
2018-02-10T11:48:16.022Z,86.83
2018-02-10T11:49:15.786Z,86.21
2018-02-10T11:50:16.778Z,85.64
2018-02-10T11:51:15.751Z,85.93
2018-02-10T11:52:15.742Z,85.26
2018-02-10T11:53:15.971Z,85.07
2018-02-10T11:54:15.968Z,85.36
2018-02-10T11:55:16.206Z,85.36
2018-02-10T11:56:15.704Z,84.5
2018-02-10T11:57:15.702Z,83.94
2018-02-10T11:58:15.690Z,83.84
2018-02-10T11:59:15.936Z,84.12
2018-02-10T12:00:16.508Z,83.65
2018-02-10T12:01:15.695Z,83.65
2018-02-10T12:02:15.902Z,83.55
2018-02-10T12:03:15.657Z,83.84
2018-02-10T12:04:15.895Z,83.65
2018-02-10T12:05:16.194Z,83.74
2018-02-10T12:06:15.886Z,84.31
2018-02-10T12:07:15.869Z,83.94
2018-02-10T12:08:15.614Z,84.5
2018-02-10T12:09:15.620Z,83.94
2018-02-10T12:10:16.064Z,84.22
2018-02-10T12:11:15.851Z,84.31
2018-02-10T12:12:15.837Z,84.22
2018-02-10T12:13:15.569Z,83.36
2018-02-10T12:14:15.826Z,83.94
2018-02-10T12:15:16.790Z,83.94
2018-02-10T12:16:15.805Z,83.94
2018-02-10T12:17:15.804Z,84.59
2018-02-10T12:18:15.535Z,85.17
2018-02-10T12:19:15.791Z,85.64
2018-02-10T12:20:16.222Z,85.55
2018-02-10T12:21:15.768Z,85.5
2018-02-10T12:22:15.760Z,86.59
2018-02-10T12:23:15.764Z,86.97
2018-02-10T12:24:15.755Z,86.97
2018-02-10T12:25:16.733Z,86.97
2018-02-10T12:26:15.750Z,86.93
2018-02-10T12:27:15.464Z,87.49
2018-02-10T12:28:15.455Z,87.21
2018-02-10T12:29:15.449Z,87.77
2018-02-10T12:30:16.304Z,87.59
2018-02-10T12:31:15.699Z,87.68
2018-02-10T12:32:15.689Z,87.3
2018-02-10T12:33:15.681Z,86.93
2018-02-10T12:34:15.703Z,86.64
2018-02-10T12:35:16.356Z,86.35
2018-02-10T12:36:15.395Z,86.35
2018-02-10T12:37:15.861Z,86.83
2018-02-10T12:38:16.156Z,87.12
2018-02-10T12:39:16.170Z,86.93
2018-02-10T12:40:16.013Z,86.55
2018-02-10T12:41:15.748Z,86.35
2018-02-10T12:42:15.594Z,86.45
2018-02-10T12:43:15.338Z,86.64
2018-02-10T12:44:15.590Z,86.45
2018-02-10T12:45:15.903Z,86.07
2018-02-10T12:46:15.313Z,86.3
2018-02-10T12:47:15.560Z,85.93
2018-02-10T12:48:15.297Z,85.93
2018-02-10T12:49:15.540Z,85.36
2018-02-10T12:50:15.919Z,85.17
2018-02-10T12:51:15.526Z,84.69
2018-02-10T12:52:15.299Z,84.5
2018-02-10T12:53:15.511Z,85.17
2018-02-10T12:54:15.553Z,84.69
2018-02-10T12:55:16.210Z,84.69
2018-02-10T12:56:15.235Z,84.88
2018-02-10T12:57:15.231Z,84.98
2018-02-10T12:58:15.469Z,84.69
2018-02-10T12:59:15.460Z,84.5
2018-02-10T13:00:16.176Z,84.22
2018-02-10T13:01:15.199Z,83.84
2018-02-10T13:02:15.445Z,83.94
2018-02-10T13:03:15.184Z,83.27
2018-02-10T13:04:15.433Z,83.84
2018-02-10T13:05:15.892Z,83.94
2018-02-10T13:06:15.419Z,82.98
2018-02-10T13:07:15.405Z,83.36
2018-02-10T13:08:15.140Z,83.74
2018-02-10T13:09:15.383Z,83.55
2018-02-10T13:10:16.014Z,83.17
2018-02-10T13:11:15.136Z,83.36
2018-02-10T13:12:15.357Z,83.65
2018-02-10T13:13:15.359Z,83.74
2018-02-10T13:14:15.097Z,83.65
2018-02-10T13:15:17.177Z,84.03
2018-02-10T13:16:15.329Z,83.94
2018-02-10T13:17:15.088Z,83.94
2018-02-10T13:18:15.061Z,84.12
2018-02-10T13:19:15.315Z,84.22
2018-02-10T13:20:15.818Z,84.12
2018-02-10T13:21:15.043Z,84.12
2018-02-10T13:22:15.298Z,84.41
2018-02-10T13:23:15.050Z,83.94